sensor_id;sensor_type;location;lat;lon;timestamp;P1;durP1;ratioP1;P2;durP2;ratioP2
70787;SDS011;58391;47.752;19.100;2022-07-21T00:00:12;1.20;;;0.40;;
70787;SDS011;58391;47.752;19.100;2022-07-21T00:02:40;1.52;;;0.50;;
70787;SDS011;58391;47.752;19.100;2022-07-21T00:05:07;1.67;;;0.40;;
70787;SDS011;58391;47.752;19.100;2022-07-21T00:07:34;1.75;;;0.60;;
70787;SDS011;58391;47.752;19.100;2022-07-21T00:10:01;1.50;;;0.50;;
70787;SDS011;58391;47.752;19.100;2022-07-21T00:12:28;1.58;;;0.52;;
70787;SDS011;58391;47.752;19.100;2022-07-21T00:14:55;1.62;;;0.85;;
70787;SDS011;58391;47.752;19.100;2022-07-21T00:17:22;1.80;;;0.50;;
70787;SDS011;58391;47.752;19.100;2022-07-21T00:19:50;1.10;;;0.30;;
70787;SDS011;58391;47.752;19.100;2022-07-21T00:22:17;2.03;;;0.80;;
70787;SDS011;58391;47.752;19.100;2022-07-21T00:24:43;1.40;;;0.43;;
70787;SDS011;58391;47.752;19.100;2022-07-21T00:27:10;1.90;;;0.50;;
70787;SDS011;58391;47.752;19.100;2022-07-21T00:29:37;1.65;;;0.68;;
70787;SDS011;58391;47.752;19.100;2022-07-21T00:32:04;1.70;;;0.65;;
70787;SDS011;58391;47.752;19.100;2022-07-21T00:34:32;1.30;;;0.30;;
70787;SDS011;58391;47.752;19.100;2022-07-21T00:36:59;1.50;;;0.40;;
70787;SDS011;58391;47.752;19.100;2022-07-21T00:39:26;1.60;;;0.52;;
70787;SDS011;58391;47.752;19.100;2022-07-21T00:41:53;1.67;;;0.40;;
70787;SDS011;58391;47.752;19.100;2022-07-21T00:44:24;1.20;;;0.35;;
70787;SDS011;58391;47.752;19.100;2022-07-21T00:46:53;1.60;;;0.40;;
70787;SDS011;58391;47.752;19.100;2022-07-21T00:49:20;1.10;;;0.30;;
70787;SDS011;58391;47.752;19.100;2022-07-21T00:51:48;1.70;;;0.60;;
70787;SDS011;58391;47.752;19.100;2022-07-21T00:54:16;1.95;;;0.90;;
70787;SDS011;58391;47.752;19.100;2022-07-21T00:56:44;1.10;;;0.30;;
70787;SDS011;58391;47.752;19.100;2022-07-21T00:59:12;1.43;;;0.50;;
70787;SDS011;58391;47.752;19.100;2022-07-21T01:01:39;1.20;;;0.40;;
70787;SDS011;58391;47.752;19.100;2022-07-21T01:04:06;1.50;;;0.60;;
70787;SDS011;58391;47.752;19.100;2022-07-21T01:06:33;1.33;;;0.40;;
70787;SDS011;58391;47.752;19.100;2022-07-21T01:09:00;1.52;;;0.50;;
70787;SDS011;58391;47.752;19.100;2022-07-21T01:11:33;1.30;;;0.30;;
70787;SDS011;58391;47.752;19.100;2022-07-21T01:14:00;1.40;;;0.52;;
70787;SDS011;58391;47.752;19.100;2022-07-21T01:16:27;1.10;;;0.30;;
70787;SDS011;58391;47.752;19.100;2022-07-21T01:18:54;1.27;;;0.40;;
70787;SDS011;58391;47.752;19.100;2022-07-21T01:21:27;1.20;;;0.30;;
70787;SDS011;58391;47.752;19.100;2022-07-21T01:23:58;2.80;;;0.57;;
70787;SDS011;58391;47.752;19.100;2022-07-21T01:26:26;1.67;;;0.43;;
70787;SDS011;58391;47.752;19.100;2022-07-21T01:28:53;1.10;;;0.30;;
70787;SDS011;58391;47.752;19.100;2022-07-21T01:31:21;1.20;;;0.30;;
70787;SDS011;58391;47.752;19.100;2022-07-21T01:33:48;1.23;;;0.35;;
70787;SDS011;58391;47.752;19.100;2022-07-21T01:36:16;1.40;;;0.50;;
70787;SDS011;58391;47.752;19.100;2022-07-21T01:38:43;2.17;;;0.50;;
70787;SDS011;58391;47.752;19.100;2022-07-21T01:41:28;3.60;;;0.30;;
70787;SDS011;58391;47.752;19.100;2022-07-21T01:44:00;1.33;;;0.40;;
70787;SDS011;58391;47.752;19.100;2022-07-21T01:46:30;1.20;;;0.30;;
70787;SDS011;58391;47.752;19.100;2022-07-21T01:48:58;1.33;;;0.40;;
70787;SDS011;58391;47.752;19.100;2022-07-21T01:51:25;1.10;;;0.30;;
70787;SDS011;58391;47.752;19.100;2022-07-21T01:53:52;1.20;;;0.40;;
70787;SDS011;58391;47.752;19.100;2022-07-21T01:56:20;3.12;;;0.68;;
70787;SDS011;58391;47.752;19.100;2022-07-21T01:58:48;1.10;;;0.30;;
70787;SDS011;58391;47.752;19.100;2022-07-21T02:01:17;2.37;;;0.50;;
70787;SDS011;58391;47.752;19.100;2022-07-21T02:03:45;1.53;;;0.37;;
70787;SDS011;58391;47.752;19.100;2022-07-21T02:06:12;2.37;;;0.60;;
70787;SDS011;58391;47.752;19.100;2022-07-21T02:08:39;1.20;;;0.50;;
70787;SDS011;58391;47.752;19.100;2022-07-21T02:11:08;1.50;;;0.47;;
70787;SDS011;58391;47.752;19.100;2022-07-21T02:13:36;1.40;;;0.50;;
70787;SDS011;58391;47.752;19.100;2022-07-21T02:16:03;1.77;;;0.70;;
70787;SDS011;58391;47.752;19.100;2022-07-21T02:18:30;1.10;;;0.30;;
70787;SDS011;58391;47.752;19.100;2022-07-21T02:20:57;1.87;;;0.90;;
70787;SDS011;58391;47.752;19.100;2022-07-21T02:23:24;1.10;;;0.30;;
70787;SDS011;58391;47.752;19.100;2022-07-21T02:25:52;1.98;;;0.65;;
70787;SDS011;58391;47.752;19.100;2022-07-21T02:28:20;1.40;;;0.40;;
70787;SDS011;58391;47.752;19.100;2022-07-21T02:30:47;1.35;;;0.35;;
70787;SDS011;58391;47.752;19.100;2022-07-21T02:33:14;1.40;;;0.30;;
70787;SDS011;58391;47.752;19.100;2022-07-21T02:35:42;1.52;;;0.50;;
70787;SDS011;58391;47.752;19.100;2022-07-21T02:38:10;1.73;;;0.60;;
70787;SDS011;58391;47.752;19.100;2022-07-21T02:40:38;1.40;;;0.40;;
70787;SDS011;58391;47.752;19.100;2022-07-21T02:43:05;2.65;;;0.50;;
70787;SDS011;58391;47.752;19.100;2022-07-21T02:45:32;1.40;;;0.40;;
70787;SDS011;58391;47.752;19.100;2022-07-21T02:48:02;1.40;;;0.40;;
70787;SDS011;58391;47.752;19.100;2022-07-21T02:50:31;1.20;;;0.37;;
70787;SDS011;58391;47.752;19.100;2022-07-21T02:53:04;2.17;;;0.40;;
70787;SDS011;58391;47.752;19.100;2022-07-21T02:55:35;1.93;;;0.50;;
70787;SDS011;58391;47.752;19.100;2022-07-21T03:00:31;1.25;;;0.37;;
70787;SDS011;58391;47.752;19.100;2022-07-21T03:02:59;1.40;;;0.30;;
70787;SDS011;58391;47.752;19.100;2022-07-21T03:05:26;1.10;;;0.30;;
70787;SDS011;58391;47.752;19.100;2022-07-21T03:07:53;1.00;;;0.28;;
70787;SDS011;58391;47.752;19.100;2022-07-21T03:10:19;1.10;;;0.40;;
70787;SDS011;58391;47.752;19.100;2022-07-21T03:12:46;1.20;;;0.40;;
70787;SDS011;58391;47.752;19.100;2022-07-21T03:15:13;1.03;;;0.30;;
70787;SDS011;58391;47.752;19.100;2022-07-21T03:17:40;2.22;;;0.70;;
70787;SDS011;58391;47.752;19.100;2022-07-21T03:20:26;1.08;;;0.30;;
70787;SDS011;58391;47.752;19.100;2022-07-21T03:22:54;1.20;;;0.40;;
70787;SDS011;58391;47.752;19.100;2022-07-21T03:25:21;1.00;;;0.30;;
70787;SDS011;58391;47.752;19.100;2022-07-21T03:27:49;1.00;;;0.30;;
70787;SDS011;58391;47.752;19.100;2022-07-21T03:30:16;1.20;;;0.30;;
70787;SDS011;58391;47.752;19.100;2022-07-21T03:32:43;1.00;;;0.30;;
70787;SDS011;58391;47.752;19.100;2022-07-21T03:35:11;1.20;;;0.40;;
70787;SDS011;58391;47.752;19.100;2022-07-21T03:37:39;1.10;;;0.40;;
70787;SDS011;58391;47.752;19.100;2022-07-21T03:40:12;1.30;;;0.40;;
70787;SDS011;58391;47.752;19.100;2022-07-21T03:42:40;1.73;;;0.43;;
70787;SDS011;58391;47.752;19.100;2022-07-21T03:45:07;1.15;;;0.35;;
70787;SDS011;58391;47.752;19.100;2022-07-21T03:47:35;1.23;;;0.40;;
70787;SDS011;58391;47.752;19.100;2022-07-21T03:50:02;4.05;;;0.40;;
70787;SDS011;58391;47.752;19.100;2022-07-21T03:52:30;1.35;;;0.30;;
70787;SDS011;58391;47.752;19.100;2022-07-21T03:54:57;1.30;;;0.40;;
70787;SDS011;58391;47.752;19.100;2022-07-21T03:57:48;1.12;;;0.30;;
70787;SDS011;58391;47.752;19.100;2022-07-21T04:00:20;1.20;;;0.40;;
70787;SDS011;58391;47.752;19.100;2022-07-21T04:02:51;1.25;;;0.35;;
70787;SDS011;58391;47.752;19.100;2022-07-21T04:05:18;1.10;;;0.30;;
70787;SDS011;58391;47.752;19.100;2022-07-21T04:07:46;2.50;;;0.50;;
70787;SDS011;58391;47.752;19.100;2022-07-21T04:10:15;1.58;;;0.50;;
70787;SDS011;58391;47.752;19.100;2022-07-21T04:12:43;1.60;;;0.43;;
70787;SDS011;58391;47.752;19.100;2022-07-21T04:15:11;1.40;;;0.47;;
70787;SDS011;58391;47.752;19.100;2022-07-21T04:17:39;1.20;;;0.30;;
70787;SDS011;58391;47.752;19.100;2022-07-21T04:20:06;1.58;;;0.40;;
70787;SDS011;58391;47.752;19.100;2022-07-21T04:22:34;2.60;;;0.88;;
70787;SDS011;58391;47.752;19.100;2022-07-21T04:25:02;6.60;;;2.60;;
70787;SDS011;58391;47.752;19.100;2022-07-21T04:27:31;1.25;;;0.32;;
70787;SDS011;58391;47.752;19.100;2022-07-21T04:29:59;5.97;;;0.52;;
70787;SDS011;58391;47.752;19.100;2022-07-21T04:32:26;1.92;;;0.70;;
70787;SDS011;58391;47.752;19.100;2022-07-21T04:34:53;1.67;;;0.65;;
70787;SDS011;58391;47.752;19.100;2022-07-21T04:37:20;1.80;;;0.70;;
70787;SDS011;58391;47.752;19.100;2022-07-21T04:39:48;1.33;;;0.40;;
70787;SDS011;58391;47.752;19.100;2022-07-21T04:42:18;1.40;;;0.43;;
70787;SDS011;58391;47.752;19.100;2022-07-21T04:44:46;2.17;;;0.70;;
70787;SDS011;58391;47.752;19.100;2022-07-21T04:47:13;1.30;;;0.40;;
70787;SDS011;58391;47.752;19.100;2022-07-21T04:49:40;2.07;;;0.83;;
70787;SDS011;58391;47.752;19.100;2022-07-21T04:52:07;1.60;;;0.65;;
70787;SDS011;58391;47.752;19.100;2022-07-21T04:54:34;1.40;;;0.50;;
70787;SDS011;58391;47.752;19.100;2022-07-21T04:57:01;1.73;;;0.70;;
70787;SDS011;58391;47.752;19.100;2022-07-21T04:59:30;1.40;;;0.50;;
70787;SDS011;58391;47.752;19.100;2022-07-21T05:01:57;1.83;;;0.60;;
70787;SDS011;58391;47.752;19.100;2022-07-21T05:04:25;1.83;;;0.85;;
70787;SDS011;58391;47.752;19.100;2022-07-21T05:06:52;1.67;;;0.60;;
70787;SDS011;58391;47.752;19.100;2022-07-21T05:09:20;1.70;;;0.73;;
70787;SDS011;58391;47.752;19.100;2022-07-21T05:11:46;1.95;;;0.75;;
70787;SDS011;58391;47.752;19.100;2022-07-21T05:14:14;2.00;;;0.70;;
70787;SDS011;58391;47.752;19.100;2022-07-21T05:16:41;1.40;;;0.50;;
70787;SDS011;58391;47.752;19.100;2022-07-21T05:19:09;1.50;;;0.60;;
70787;SDS011;58391;47.752;19.100;2022-07-21T05:21:36;1.80;;;0.77;;
70787;SDS011;58391;47.752;19.100;2022-07-21T05:24:03;1.50;;;0.60;;
70787;SDS011;58391;47.752;19.100;2022-07-21T05:26:31;1.40;;;0.40;;
70787;SDS011;58391;47.752;19.100;2022-07-21T05:28:58;1.60;;;0.70;;
70787;SDS011;58391;47.752;19.100;2022-07-21T05:31:24;1.67;;;0.70;;
70787;SDS011;58391;47.752;19.100;2022-07-21T05:33:51;1.87;;;0.70;;
70787;SDS011;58391;47.752;19.100;2022-07-21T05:36:18;1.55;;;0.60;;
70787;SDS011;58391;47.752;19.100;2022-07-21T05:38:45;1.50;;;0.50;;
70787;SDS011;58391;47.752;19.100;2022-07-21T05:41:13;1.50;;;0.50;;
70787;SDS011;58391;47.752;19.100;2022-07-21T05:43:40;2.08;;;0.90;;
70787;SDS011;58391;47.752;19.100;2022-07-21T05:46:07;1.58;;;0.65;;
70787;SDS011;58391;47.752;19.100;2022-07-21T05:48:34;1.62;;;0.70;;
70787;SDS011;58391;47.752;19.100;2022-07-21T05:51:01;2.00;;;1.00;;
70787;SDS011;58391;47.752;19.100;2022-07-21T05:53:28;1.60;;;0.70;;
70787;SDS011;58391;47.752;19.100;2022-07-21T05:55:55;1.85;;;0.80;;
70787;SDS011;58391;47.752;19.100;2022-07-21T05:58:22;2.30;;;1.10;;
70787;SDS011;58391;47.752;19.100;2022-07-21T06:00:52;1.75;;;0.90;;
70787;SDS011;58391;47.752;19.100;2022-07-21T06:03:39;1.93;;;0.90;;
70787;SDS011;58391;47.752;19.100;2022-07-21T06:06:08;1.80;;;0.90;;
70787;SDS011;58391;47.752;19.100;2022-07-21T06:08:37;1.70;;;0.80;;
70787;SDS011;58391;47.752;19.100;2022-07-21T06:11:06;1.70;;;0.80;;
70787;SDS011;58391;47.752;19.100;2022-07-21T06:13:36;1.87;;;0.87;;
70787;SDS011;58391;47.752;19.100;2022-07-21T06:16:04;2.08;;;1.15;;
70787;SDS011;58391;47.752;19.100;2022-07-21T06:18:33;2.20;;;1.17;;
70787;SDS011;58391;47.752;19.100;2022-07-21T06:21:00;1.80;;;0.80;;
70787;SDS011;58391;47.752;19.100;2022-07-21T06:23:27;1.80;;;1.00;;
70787;SDS011;58391;47.752;19.100;2022-07-21T06:25:54;1.80;;;0.90;;
70787;SDS011;58391;47.752;19.100;2022-07-21T06:28:22;2.08;;;1.10;;
70787;SDS011;58391;47.752;19.100;2022-07-21T06:30:49;2.13;;;1.03;;
70787;SDS011;58391;47.752;19.100;2022-07-21T06:33:17;2.25;;;1.35;;
70787;SDS011;58391;47.752;19.100;2022-07-21T06:35:44;1.90;;;1.00;;
70787;SDS011;58391;47.752;19.100;2022-07-21T06:38:10;2.10;;;0.97;;
70787;SDS011;58391;47.752;19.100;2022-07-21T06:40:39;1.87;;;1.00;;
70787;SDS011;58391;47.752;19.100;2022-07-21T06:43:09;2.00;;;1.12;;
70787;SDS011;58391;47.752;19.100;2022-07-21T06:45:54;2.20;;;1.40;;
70787;SDS011;58391;47.752;19.100;2022-07-21T06:48:22;2.37;;;1.23;;
70787;SDS011;58391;47.752;19.100;2022-07-21T06:50:50;2.00;;;1.10;;
70787;SDS011;58391;47.752;19.100;2022-07-21T06:53:17;2.20;;;1.20;;
70787;SDS011;58391;47.752;19.100;2022-07-21T06:55:44;2.00;;;1.20;;
70787;SDS011;58391;47.752;19.100;2022-07-21T06:58:13;2.10;;;1.30;;
70787;SDS011;58391;47.752;19.100;2022-07-21T07:00:43;4.50;;;1.35;;
70787;SDS011;58391;47.752;19.100;2022-07-21T07:03:11;2.15;;;1.40;;
70787;SDS011;58391;47.752;19.100;2022-07-21T07:05:39;2.40;;;1.48;;
70787;SDS011;58391;47.752;19.100;2022-07-21T07:08:06;2.03;;;1.27;;
70787;SDS011;58391;47.752;19.100;2022-07-21T07:10:38;2.33;;;1.45;;
70787;SDS011;58391;47.752;19.100;2022-07-21T07:13:08;2.00;;;1.25;;
70787;SDS011;58391;47.752;19.100;2022-07-21T07:15:55;1.97;;;1.20;;
70787;SDS011;58391;47.752;19.100;2022-07-21T07:18:22;2.37;;;1.48;;
70787;SDS011;58391;47.752;19.100;2022-07-21T07:20:51;2.30;;;1.50;;
70787;SDS011;58391;47.752;19.100;2022-07-21T07:23:18;2.25;;;1.40;;
70787;SDS011;58391;47.752;19.100;2022-07-21T07:25:45;2.80;;;1.27;;
70787;SDS011;58391;47.752;19.100;2022-07-21T07:28:12;2.30;;;1.27;;
70787;SDS011;58391;47.752;19.100;2022-07-21T07:30:39;2.28;;;1.40;;
70787;SDS011;58391;47.752;19.100;2022-07-21T07:33:06;2.10;;;1.23;;
70787;SDS011;58391;47.752;19.100;2022-07-21T07:35:33;2.97;;;2.10;;
70787;SDS011;58391;47.752;19.100;2022-07-21T07:38:00;2.37;;;1.42;;
70787;SDS011;58391;47.752;19.100;2022-07-21T07:40:27;7.72;;;2.10;;
70787;SDS011;58391;47.752;19.100;2022-07-21T07:42:54;2.70;;;1.55;;
70787;SDS011;58391;47.752;19.100;2022-07-21T07:45:21;2.40;;;1.42;;
70787;SDS011;58391;47.752;19.100;2022-07-21T07:47:48;2.50;;;1.53;;
70787;SDS011;58391;47.752;19.100;2022-07-21T07:50:15;4.10;;;1.60;;
70787;SDS011;58391;47.752;19.100;2022-07-21T07:52:43;7.85;;;1.58;;
70787;SDS011;58391;47.752;19.100;2022-07-21T07:55:11;2.33;;;1.40;;
70787;SDS011;58391;47.752;19.100;2022-07-21T07:57:39;2.53;;;1.83;;
70787;SDS011;58391;47.752;19.100;2022-07-21T08:00:09;2.40;;;1.60;;
70787;SDS011;58391;47.752;19.100;2022-07-21T08:02:58;2.10;;;1.40;;
70787;SDS011;58391;47.752;19.100;2022-07-21T08:05:25;2.33;;;1.53;;
70787;SDS011;58391;47.752;19.100;2022-07-21T08:07:52;2.83;;;1.75;;
70787;SDS011;58391;47.752;19.100;2022-07-21T08:10:19;2.62;;;1.85;;
70787;SDS011;58391;47.752;19.100;2022-07-21T08:13:06;2.30;;;1.48;;
70787;SDS011;58391;47.752;19.100;2022-07-21T08:15:35;5.00;;;1.93;;
70787;SDS011;58391;47.752;19.100;2022-07-21T08:18:03;2.20;;;1.50;;
70787;SDS011;58391;47.752;19.100;2022-07-21T08:20:31;2.78;;;1.80;;
70787;SDS011;58391;47.752;19.100;2022-07-21T08:22:58;2.47;;;1.62;;
70787;SDS011;58391;47.752;19.100;2022-07-21T08:25:25;3.70;;;1.50;;
70787;SDS011;58391;47.752;19.100;2022-07-21T08:27:52;3.17;;;1.58;;
70787;SDS011;58391;47.752;19.100;2022-07-21T08:30:19;3.20;;;1.80;;
70787;SDS011;58391;47.752;19.100;2022-07-21T08:32:51;5.00;;;2.63;;
70787;SDS011;58391;47.752;19.100;2022-07-21T08:35:18;2.40;;;1.70;;
70787;SDS011;58391;47.752;19.100;2022-07-21T08:37:52;2.83;;;1.98;;
70787;SDS011;58391;47.752;19.100;2022-07-21T08:40:28;2.60;;;1.73;;
70787;SDS011;58391;47.752;19.100;2022-07-21T08:42:57;2.45;;;1.80;;
70787;SDS011;58391;47.752;19.100;2022-07-21T08:45:24;2.70;;;2.07;;
70787;SDS011;58391;47.752;19.100;2022-07-21T08:47:52;2.47;;;1.80;;
70787;SDS011;58391;47.752;19.100;2022-07-21T08:50:23;2.35;;;1.70;;
70787;SDS011;58391;47.752;19.100;2022-07-21T08:52:52;2.40;;;1.70;;
70787;SDS011;58391;47.752;19.100;2022-07-21T08:55:28;2.30;;;1.67;;
70787;SDS011;58391;47.752;19.100;2022-07-21T08:57:56;3.45;;;2.00;;
70787;SDS011;58391;47.752;19.100;2022-07-21T09:00:23;2.50;;;1.75;;
70787;SDS011;58391;47.752;19.100;2022-07-21T09:03:07;3.17;;;2.23;;
70787;SDS011;58391;47.752;19.100;2022-07-21T09:06:12;2.70;;;1.77;;
70787;SDS011;58391;47.752;19.100;2022-07-21T09:16:42;2.47;;;1.77;;
70787;SDS011;58391;47.752;19.100;2022-07-21T09:19:26;2.40;;;1.60;;
70787;SDS011;58391;47.752;19.100;2022-07-21T09:21:59;2.67;;;1.92;;
70787;SDS011;58391;47.752;19.100;2022-07-21T09:24:28;3.27;;;2.57;;
70787;SDS011;58391;47.752;19.100;2022-07-21T09:27:00;2.92;;;2.10;;
70787;SDS011;58391;47.752;19.100;2022-07-21T09:29:32;2.50;;;1.90;;
70787;SDS011;58391;47.752;19.100;2022-07-21T09:34:43;2.70;;;1.90;;
70787;SDS011;58391;47.752;19.100;2022-07-21T09:37:11;2.70;;;1.83;;
70787;SDS011;58391;47.752;19.100;2022-07-21T09:39:51;3.20;;;2.10;;
70787;SDS011;58391;47.752;19.100;2022-07-21T09:42:22;2.62;;;1.80;;
70787;SDS011;58391;47.752;19.100;2022-07-21T09:44:59;2.90;;;2.10;;
70787;SDS011;58391;47.752;19.100;2022-07-21T09:47:29;2.90;;;2.25;;
70787;SDS011;58391;47.752;19.100;2022-07-21T09:49:58;2.72;;;2.20;;
70787;SDS011;58391;47.752;19.100;2022-07-21T09:52:46;3.25;;;2.35;;
70787;SDS011;58391;47.752;19.100;2022-07-21T09:55:16;2.65;;;2.10;;
70787;SDS011;58391;47.752;19.100;2022-07-21T09:57:44;3.10;;;2.53;;
70787;SDS011;58391;47.752;19.100;2022-07-21T10:00:13;2.47;;;1.85;;
70787;SDS011;58391;47.752;19.100;2022-07-21T10:02:45;2.80;;;2.00;;
70787;SDS011;58391;47.752;19.100;2022-07-21T10:05:14;2.78;;;2.10;;
70787;SDS011;58391;47.752;19.100;2022-07-21T10:07:44;2.60;;;1.98;;
70787;SDS011;58391;47.752;19.100;2022-07-21T10:10:13;2.80;;;2.20;;
70787;SDS011;58391;47.752;19.100;2022-07-21T10:12:40;3.05;;;2.28;;
70787;SDS011;58391;47.752;19.100;2022-07-21T10:15:07;2.87;;;2.45;;
70787;SDS011;58391;47.752;19.100;2022-07-21T10:17:35;2.80;;;2.00;;
70787;SDS011;58391;47.752;19.100;2022-07-21T10:25:35;2.50;;;1.87;;
70787;SDS011;58391;47.752;19.100;2022-07-21T10:30:54;2.60;;;2.10;;
70787;SDS011;58391;47.752;19.100;2022-07-21T10:39:12;2.78;;;2.10;;
70787;SDS011;58391;47.752;19.100;2022-07-21T10:42:13;2.60;;;2.00;;
70787;SDS011;58391;47.752;19.100;2022-07-21T10:44:44;3.53;;;2.40;;
70787;SDS011;58391;47.752;19.100;2022-07-21T10:47:17;3.80;;;2.67;;
70787;SDS011;58391;47.752;19.100;2022-07-21T10:55:18;3.27;;;2.73;;
70787;SDS011;58391;47.752;19.100;2022-07-21T11:00:47;2.65;;;2.05;;
70787;SDS011;58391;47.752;19.100;2022-07-21T11:08:37;2.83;;;2.25;;
70787;SDS011;58391;47.752;19.100;2022-07-21T11:11:25;2.87;;;2.28;;
70787;SDS011;58391;47.752;19.100;2022-07-21T11:14:12;2.53;;;1.87;;
70787;SDS011;58391;47.752;19.100;2022-07-21T11:22:03;3.00;;;2.22;;
70787;SDS011;58391;47.752;19.100;2022-07-21T11:27:28;2.97;;;2.30;;
70787;SDS011;58391;47.752;19.100;2022-07-21T11:29:57;2.70;;;2.10;;
70787;SDS011;58391;47.752;19.100;2022-07-21T11:32:25;2.90;;;2.33;;
70787;SDS011;58391;47.752;19.100;2022-07-21T11:42:34;2.72;;;2.03;;
70787;SDS011;58391;47.752;19.100;2022-07-21T11:45:01;3.07;;;2.53;;
70787;SDS011;58391;47.752;19.100;2022-07-21T11:47:29;2.55;;;2.03;;
70787;SDS011;58391;47.752;19.100;2022-07-21T11:49:57;2.70;;;1.92;;
70787;SDS011;58391;47.752;19.100;2022-07-21T11:52:26;2.78;;;2.17;;
70787;SDS011;58391;47.752;19.100;2022-07-21T11:54:55;3.17;;;2.40;;
70787;SDS011;58391;47.752;19.100;2022-07-21T11:57:24;3.20;;;2.50;;
70787;SDS011;58391;47.752;19.100;2022-07-21T11:59:53;3.10;;;2.70;;
70787;SDS011;58391;47.752;19.100;2022-07-21T12:02:22;3.05;;;2.10;;
70787;SDS011;58391;47.752;19.100;2022-07-21T12:07:26;2.53;;;1.80;;
70787;SDS011;58391;47.752;19.100;2022-07-21T12:09:57;2.83;;;2.15;;
70787;SDS011;58391;47.752;19.100;2022-07-21T12:15:09;2.50;;;1.70;;
70787;SDS011;58391;47.752;19.100;2022-07-21T12:17:56;3.30;;;2.30;;
70787;SDS011;58391;47.752;19.100;2022-07-21T12:23:24;2.53;;;1.87;;
70787;SDS011;58391;47.752;19.100;2022-07-21T12:25:55;2.95;;;2.20;;
70787;SDS011;58391;47.752;19.100;2022-07-21T12:31:11;4.10;;;3.28;;
70787;SDS011;58391;47.752;19.100;2022-07-21T12:33:41;3.00;;;2.45;;
70787;SDS011;58391;47.752;19.100;2022-07-21T12:36:28;2.70;;;2.10;;
70787;SDS011;58391;47.752;19.100;2022-07-21T12:38:55;3.70;;;2.30;;
70787;SDS011;58391;47.752;19.100;2022-07-21T12:41:23;3.67;;;2.40;;
70787;SDS011;58391;47.752;19.100;2022-07-21T12:43:59;3.12;;;2.37;;
70787;SDS011;58391;47.752;19.100;2022-07-21T12:46:28;2.78;;;2.10;;
70787;SDS011;58391;47.752;19.100;2022-07-21T12:49:03;3.10;;;2.30;;
70787;SDS011;58391;47.752;19.100;2022-07-21T12:51:38;2.97;;;2.23;;
70787;SDS011;58391;47.752;19.100;2022-07-21T12:54:05;2.90;;;2.40;;
70787;SDS011;58391;47.752;19.100;2022-07-21T12:56:33;3.33;;;2.83;;
70787;SDS011;58391;47.752;19.100;2022-07-21T12:59:02;3.17;;;2.28;;
70787;SDS011;58391;47.752;19.100;2022-07-21T13:01:30;3.20;;;2.70;;
70787;SDS011;58391;47.752;19.100;2022-07-21T13:03:59;3.00;;;2.50;;
70787;SDS011;58391;47.752;19.100;2022-07-21T13:06:28;2.70;;;2.15;;
70787;SDS011;58391;47.752;19.100;2022-07-21T13:08:56;2.87;;;2.37;;
70787;SDS011;58391;47.752;19.100;2022-07-21T13:11:24;2.95;;;2.37;;
70787;SDS011;58391;47.752;19.100;2022-07-21T13:13:51;2.80;;;2.20;;
70787;SDS011;58391;47.752;19.100;2022-07-21T13:16:19;5.25;;;2.40;;
70787;SDS011;58391;47.752;19.100;2022-07-21T13:18:50;3.03;;;2.50;;
70787;SDS011;58391;47.752;19.100;2022-07-21T13:21:18;3.30;;;2.50;;
70787;SDS011;58391;47.752;19.100;2022-07-21T13:23:45;3.10;;;2.62;;
70787;SDS011;58391;47.752;19.100;2022-07-21T13:26:12;2.67;;;2.10;;
70787;SDS011;58391;47.752;19.100;2022-07-21T13:28:39;3.05;;;2.53;;
70787;SDS011;58391;47.752;19.100;2022-07-21T13:31:07;3.08;;;2.40;;
70787;SDS011;58391;47.752;19.100;2022-07-21T13:33:35;2.40;;;1.83;;
70787;SDS011;58391;47.752;19.100;2022-07-21T13:36:05;2.87;;;2.20;;
70787;SDS011;58391;47.752;19.100;2022-07-21T13:38:33;2.90;;;2.43;;
70787;SDS011;58391;47.752;19.100;2022-07-21T13:40:59;3.03;;;2.40;;
70787;SDS011;58391;47.752;19.100;2022-07-21T13:43:46;3.10;;;2.60;;
70787;SDS011;58391;47.752;19.100;2022-07-21T13:46:14;2.90;;;2.28;;
70787;SDS011;58391;47.752;19.100;2022-07-21T13:48:41;3.10;;;2.60;;
70787;SDS011;58391;47.752;19.100;2022-07-21T13:51:14;2.85;;;2.33;;
70787;SDS011;58391;47.752;19.100;2022-07-21T13:53:42;3.97;;;3.15;;
70787;SDS011;58391;47.752;19.100;2022-07-21T13:56:10;3.17;;;2.33;;
70787;SDS011;58391;47.752;19.100;2022-07-21T13:58:37;2.90;;;2.47;;
70787;SDS011;58391;47.752;19.100;2022-07-21T14:01:05;2.85;;;2.37;;
70787;SDS011;58391;47.752;19.100;2022-07-21T14:03:34;2.70;;;2.15;;
70787;SDS011;58391;47.752;19.100;2022-07-21T14:06:02;3.22;;;2.78;;
70787;SDS011;58391;47.752;19.100;2022-07-21T14:08:29;3.17;;;2.27;;
70787;SDS011;58391;47.752;19.100;2022-07-21T14:10:56;3.03;;;2.20;;
70787;SDS011;58391;47.752;19.100;2022-07-21T14:13:23;7.37;;;3.28;;
70787;SDS011;58391;47.752;19.100;2022-07-21T14:15:50;2.40;;;1.70;;
70787;SDS011;58391;47.752;19.100;2022-07-21T14:18:18;2.90;;;2.17;;
70787;SDS011;58391;47.752;19.100;2022-07-21T14:20:45;3.00;;;2.07;;
70787;SDS011;58391;47.752;19.100;2022-07-21T14:23:15;4.10;;;2.95;;
70787;SDS011;58391;47.752;19.100;2022-07-21T14:25:44;2.65;;;2.08;;
70787;SDS011;58391;47.752;19.100;2022-07-21T14:28:12;3.13;;;2.40;;
70787;SDS011;58391;47.752;19.100;2022-07-21T14:30:39;2.90;;;2.42;;
70787;SDS011;58391;47.752;19.100;2022-07-21T14:33:06;2.80;;;2.25;;
70787;SDS011;58391;47.752;19.100;2022-07-21T14:35:33;3.20;;;2.53;;
70787;SDS011;58391;47.752;19.100;2022-07-21T14:38:00;3.40;;;2.23;;
70787;SDS011;58391;47.752;19.100;2022-07-21T14:40:28;3.05;;;2.45;;
70787;SDS011;58391;47.752;19.100;2022-07-21T14:42:55;3.00;;;2.60;;
70787;SDS011;58391;47.752;19.100;2022-07-21T14:45:22;2.80;;;2.33;;
70787;SDS011;58391;47.752;19.100;2022-07-21T14:47:50;2.70;;;2.20;;
70787;SDS011;58391;47.752;19.100;2022-07-21T14:50:18;2.90;;;2.37;;
70787;SDS011;58391;47.752;19.100;2022-07-21T14:52:53;3.22;;;2.80;;
70787;SDS011;58391;47.752;19.100;2022-07-21T14:55:21;2.85;;;2.33;;
70787;SDS011;58391;47.752;19.100;2022-07-21T14:57:52;2.75;;;2.25;;
70787;SDS011;58391;47.752;19.100;2022-07-21T15:00:20;2.80;;;2.30;;
70787;SDS011;58391;47.752;19.100;2022-07-21T15:02:47;3.87;;;3.37;;
70787;SDS011;58391;47.752;19.100;2022-07-21T15:05:21;3.15;;;2.50;;
70787;SDS011;58391;47.752;19.100;2022-07-21T15:07:48;3.10;;;2.45;;
70787;SDS011;58391;47.752;19.100;2022-07-21T15:10:15;2.80;;;2.33;;
70787;SDS011;58391;47.752;19.100;2022-07-21T15:12:43;2.92;;;2.37;;
70787;SDS011;58391;47.752;19.100;2022-07-21T15:15:10;4.20;;;2.40;;
70787;SDS011;58391;47.752;19.100;2022-07-21T15:17:37;2.83;;;2.10;;
70787;SDS011;58391;47.752;19.100;2022-07-21T15:20:04;3.90;;;2.30;;
70787;SDS011;58391;47.752;19.100;2022-07-21T15:22:38;3.17;;;2.20;;
70787;SDS011;58391;47.752;19.100;2022-07-21T15:25:06;2.85;;;2.08;;
70787;SDS011;58391;47.752;19.100;2022-07-21T15:27:37;3.20;;;2.50;;
70787;SDS011;58391;47.752;19.100;2022-07-21T15:30:06;2.70;;;2.03;;
70787;SDS011;58391;47.752;19.100;2022-07-21T15:32:34;2.67;;;2.08;;
70787;SDS011;58391;47.752;19.100;2022-07-21T15:35:01;2.80;;;2.30;;
70787;SDS011;58391;47.752;19.100;2022-07-21T15:37:29;2.55;;;1.73;;
70787;SDS011;58391;47.752;19.100;2022-07-21T15:39:56;2.67;;;2.10;;
70787;SDS011;58391;47.752;19.100;2022-07-21T15:42:23;2.60;;;2.00;;
70787;SDS011;58391;47.752;19.100;2022-07-21T15:44:51;2.65;;;1.90;;
70787;SDS011;58391;47.752;19.100;2022-07-21T15:47:18;3.12;;;2.40;;
70787;SDS011;58391;47.752;19.100;2022-07-21T15:49:45;4.20;;;2.13;;
70787;SDS011;58391;47.752;19.100;2022-07-21T15:52:14;3.55;;;2.28;;